Flight Track Log - Related Links

Times and Time Zones

All times are in EDT time to prevent confusion due to time zone crossing. See the EGF3681 flight status page for this flight to view local times or setup timezone preferences in your user account.

Time Position Orientation Groundspeed Altitude Reporting Facility
EDT Latitude Longitude Course Direction KTS MPH feet Rate Location/Type
Thu 10:53:54 PM 41.9167 -87.8667 90° East 232 267 2,600  Level Chicago TRACON
Thu 10:55:00 PM 41.9643 -87.5095 98° East  Level FlightAware Approximate
Thu 10:55:33 PM 41.9258 -87.6986 86° East 265 305 6,800  Level Chicago Center
Thu 10:56:00 PM 41.9514 -87.3805 98° East  Level FlightAware Approximate
Thu 10:56:34 PM 41.9281 -87.5958 88° East 274 315 8,700  Level Chicago Center
Thu 10:57:00 PM 41.9418 -87.2509 95° East  Level FlightAware Approximate
Thu 10:57:35 PM 41.9308 -87.4878 88° East 288 331 10,200  Level Chicago Center
Thu 10:58:00 PM 41.9333 -87.1213 90° East  Level FlightAware Approximate
Thu 10:58:36 PM 41.9367 -87.3661 86° East 320 368 10,800  Level Chicago Center
Thu 10:59:00 PM 41.9333 -86.9953 90° East  Level FlightAware Approximate
Thu 10:59:37 PM 41.9400 -87.2336 88° East 348 400 11,800  Level Chicago Center
Thu 11:00:38 PM 41.9408 -87.0931 89° East 371 427 12,800 976 Climbing Chicago Center
Thu 11:01:40 PM 41.9203 -86.9533 101° East 382 440 13,800 976 Climbing Chicago Center
Thu 11:02:41 PM 41.9039 -86.8114 99° East 385 443 14,800 1,033 Climbing Chicago Center
Thu 11:03:42 PM 41.8858 -86.6653 99° East 390 449 15,900 1,033 Climbing Chicago Center
Thu 11:04:43 PM 41.8689 -86.5222 99° East 389 448 16,900 934 Climbing Chicago Center
Thu 11:05:44 PM 41.8292 -86.3906 112° Southeast 389 448 17,800 934 Climbing Chicago Center
Thu 11:06:45 PM 41.7550 -86.2792 132° Southeast 399 459 18,800 1,131 Climbing Chicago Center
Thu 11:07:46 PM 41.6686 -86.1436 130° Southeast 401 461 20,100 1,131 Climbing Chicago Center
Thu 11:08:47 PM 41.5953 -86.0289 131° Southeast 407 468 21,100 976 Climbing Chicago Center
Thu 11:09:49 PM 41.5211 -85.9139 131° Southeast 411 473 22,100 927 Climbing Chicago Center
Thu 11:10:50 PM 41.4486 -85.8003 130° Southeast 409 471 23,000 443 Climbing Chicago Center
Thu 11:11:51 PM 41.3714 -85.6800 131° Southeast 425 489 23,000  Level Chicago Center
Thu 11:12:52 PM 41.2928 -85.5564 130° Southeast 438 504 23,000  Level Chicago Center
Thu 11:13:53 PM 41.2111 -85.4308 131° Southeast 449 517 23,000 -639 Level Chicago Center
Thu 11:14:54 PM 41.1097 -85.2747 131° Southeast 461 531 21,700 -1,672 Descending Chicago Center
Thu 11:15:55 PM 41.0281 -85.1500 131° Southeast 459 528 19,600 -1,967 Descending Chicago Center
Thu 11:16:56 PM 40.9497 -85.0283 130° Southeast 448 516 17,700 -1,902 Descending Chicago Center
Thu 11:17:58 PM 40.8733 -84.9158 132° Southeast 430 495 15,700 -1,328 Descending Chicago Center
Thu 11:18:58 PM 40.8006 -84.8044 131° Southeast 413 475 15,000 -344 Descending Chicago Center
Thu 11:20:00 PM 40.7261 -84.6942 132° Southeast 406 467 15,000 -333 Level Chicago Center
Thu 11:20:46 PM 40.6658 -84.6017 131° Southeast 408 470 14,400 -897 Descending Indianapolis Center
Thu 11:21:47 PM 40.5903 -84.4906 132° Southeast 408 470 13,400 -1,016 Descending Indianapolis Center
Thu 11:22:50 PM 40.4722 -84.4394 162° South 382 440 12,300 -976 Descending Indianapolis Center
Thu 11:23:50 PM 40.3881 -84.4078 164° South 382 440 11,400 -992 Descending Indianapolis Center
Thu 11:24:51 PM 40.3003 -84.3733 163° South 342 394 10,300 -1,565 Descending Indianapolis Center
Thu 11:25:45 PM 40.2128 -84.3672 177° South 286 329 8,400 -1,774 Descending Indianapolis Center
Thu 11:26:46 PM 40.1361 -84.3753 185° South 276 318 6,900 -1,279 Descending Indianapolis Center
Thu 11:27:47 PM 40.0633 -84.3867 187° South 261 300 5,800 -1,041 Descending Indianapolis Center
Thu 11:28:47 PM 39.9947 -84.3797 176° South 251 289 4,800 -992 Descending Indianapolis Center
Thu 11:29:48 PM 39.9239 -84.3722 175° South 255 293 3,800 -992 Descending Indianapolis Center
Thu 11:30:48 PM 39.8683 -84.3403 156° South 187 215 2,800 -870 Descending Indianapolis Center
Thu 11:31:59 PM 39.8786 -84.2842 77° East 184 212 1,900 -879 Descending Indianapolis Center
Thu 11:32:44 PM 39.8928 -84.2492 62° Northeast 138 159 1,100 -1,067 Descending Indianapolis Center

Login

Don't have an account? Register now (free) for customized features, flight alerts, and more!